Fin-ally — WDG3773 — position and weather

sailwx.info

Track history (hours):
 
Tides and Currents Weather Stations Pressure Air Temp Water Temp Dewpoint Dewpoint Depression Visibility Wind Speed Wind Dir Waves Ship Positions

Fin-ally

Owner: Siegel, Andrew, Newtown, CT. More information available from US FCC via Universal Licensing System and Coast Guard Vessel Documentation Center.

Last reported at 2017-Dec-30 11:41 UTC. Time now 2018-Apr-25 05:09 UTC.
Position N 34°37' W 076°37'.
Warning: this ship's position is months out of date.

Type: Pleasure craft. MMSI: 367529510.

Date/timePositionNaut miles runAvg speedWind from/ knotsBaromVisibWave heightAir tempDewpointWater temp
2017-Dec-30 11:41N 34°37' W 076°37'319.5
2017-Dec-30 11:30N 34°40' W 076°39'5 9.0
2017-Dec-30 11:00N 34°44' W 076°41'1 1.8
2017-Dec-30 10:29N 34°44' W 076°40'0 0.0
2017-Dec-30 09:59N 34°44' W 076°40'0 0.0
2017-Dec-30 09:29N 34°44' W 076°40'0 0.0
2017-Dec-30 08:59N 34°44' W 076°40'0 0.0
2017-Dec-30 08:29N 34°44' W 076°40'0 0.0
2017-Dec-30 07:59N 34°44' W 076°40'0 0.0
2017-Dec-30 07:29N 34°44' W 076°40'0 0.0
2017-Dec-30 06:59N 34°44' W 076°40'0 0.0
2017-Dec-30 06:29N 34°44' W 076°40'0 0.0
2017-Dec-30 05:59N 34°44' W 076°40'0 0.0
2017-Dec-30 05:29N 34°44' W 076°40'0 0.0
2017-Dec-30 04:59N 34°44' W 076°40'0 0.0
2017-Dec-30 04:26N 34°44' W 076°40'0 0.0
2017-Dec-30 03:59N 34°44' W 076°40'0 0.0
2017-Dec-30 03:29N 34°44' W 076°40'0 0.0
2017-Dec-30 02:56N 34°44' W 076°40'0 0.0
2017-Dec-30 02:29N 34°44' W 076°40'0 0.0
2017-Dec-30 01:59N 34°44' W 076°40'0 0.0
2017-Dec-30 01:29N 34°44' W 076°40'0 0.0
2017-Dec-30 00:59N 34°44' W 076°40'0 0.0
2017-Dec-30 00:29N 34°44' W 076°40'0 0.0
2017-Dec-29 23:59N 34°44' W 076°40'0 0.0
2017-Dec-29 23:29N 34°44' W 076°40'0 0.0
2017-Dec-29 22:59N 34°44' W 076°40'1 1.6
2017-Dec-29 22:30N 34°44' W 076°41'815.3
2017-Dec-29 22:00N 34°36' W 076°41'2 1.7
2017-Dec-29 21:03N 34°35' W 076°40'0 5.8
2017-Dec-29 21:00N 34°35' W 076°40'3 0.5
2017-Dec-29 14:06N 34°34' W 076°37'1 5.5
2017-Dec-29 13:57N 34°34' W 076°38'817.9
2017-Dec-29 13:30N 34°42' W 076°40'2 3.3
2017-Dec-29 13:00N 34°44' W 076°40'  
Track history (hours):
 
Tides and Currents Weather Stations Pressure Air Temp Water Temp Dewpoint Dewpoint Depression Visibility Wind Speed Wind Dir Waves Ship Positions

Fin-ally

Owner: Siegel, Andrew, Newtown, CT. More information available from US FCC via Universal Licensing System and Coast Guard Vessel Documentation Center.

Last reported at 2017-Dec-30 11:41 UTC. Time now 2018-Apr-25 05:09 UTC.
Position N 34°37' W 076°37'.
Warning: this ship's position is months out of date.

Type: Pleasure craft. MMSI: 367529510.

Date/timePositionNaut miles runAvg speedWind from/ knotsBaromVisibWave heightAir tempDewpointWater temp
2017-Dec-30 11:41N 34°37' W 076°37'319.5
2017-Dec-30 11:30N 34°40' W 076°39'5 9.0
2017-Dec-30 11:00N 34°44' W 076°41'1 1.8
2017-Dec-30 10:29N 34°44' W 076°40'0 0.0
2017-Dec-30 09:59N 34°44' W 076°40'0 0.0
2017-Dec-30 09:29N 34°44' W 076°40'0 0.0
2017-Dec-30 08:59N 34°44' W 076°40'0 0.0
2017-Dec-30 08:29N 34°44' W 076°40'0 0.0
2017-Dec-30 07:59N 34°44' W 076°40'0 0.0
2017-Dec-30 07:29N 34°44' W 076°40'0 0.0
2017-Dec-30 06:59N 34°44' W 076°40'0 0.0
2017-Dec-30 06:29N 34°44' W 076°40'0 0.0
2017-Dec-30 05:59N 34°44' W 076°40'0 0.0
2017-Dec-30 05:29N 34°44' W 076°40'0 0.0
2017-Dec-30 04:59N 34°44' W 076°40'0 0.0
2017-Dec-30 04:26N 34°44' W 076°40'0 0.0
2017-Dec-30 03:59N 34°44' W 076°40'0 0.0
2017-Dec-30 03:29N 34°44' W 076°40'0 0.0
2017-Dec-30 02:56N 34°44' W 076°40'0 0.0
2017-Dec-30 02:29N 34°44' W 076°40'0 0.0
2017-Dec-30 01:59N 34°44' W 076°40'0 0.0
2017-Dec-30 01:29N 34°44' W 076°40'0 0.0
2017-Dec-30 00:59N 34°44' W 076°40'0 0.0
2017-Dec-30 00:29N 34°44' W 076°40'0 0.0
2017-Dec-29 23:59N 34°44' W 076°40'0 0.0
2017-Dec-29 23:29N 34°44' W 076°40'0 0.0
2017-Dec-29 22:59N 34°44' W 076°40'1 1.6
2017-Dec-29 22:30N 34°44' W 076°41'815.3
2017-Dec-29 22:00N 34°36' W 076°41'2 1.7
2017-Dec-29 21:03N 34°35' W 076°40'0 5.8
2017-Dec-29 21:00N 34°35' W 076°40'3 0.5
2017-Dec-29 14:06N 34°34' W 076°37'1 5.5
2017-Dec-29 13:57N 34°34' W 076°38'817.9
2017-Dec-29 13:30N 34°42' W 076°40'2 3.3
2017-Dec-29 13:00N 34°44' W 076°40'  

Dump ship's entire track history